Time;durP1;ratioP1;P1;durP2;ratioP2;P2;SDS_P1;SDS_P2;PMS_P1;PMS_P2;Temp;Humidity;BMP_temperature;BMP_pressure;BME280_temperature;BME280_humidity;BME280_pressure;Samples;Min_cycle;Max_cycle;Signal;HPM_P1;HPM_P2
2021/01/27 00:00:27;;;;;;;10.88;8.77;;;;;;;-2.12;100.00;96110.00;1045078;28;20029;-71
2021/01/27 00:00:58;;;;;;;12.80;8.80;;;;;;;-2.12;100.00;96110.84;1044835;28;20400;-73
2021/01/27 00:01:28;;;;;;;10.60;8.75;;;;;;;-2.11;100.00;96114.22;1044912;28;20248;-71
2021/01/27 00:01:58;;;;;;;11.52;8.80;;;;;;;-2.12;100.00;96113.44;1040490;28;20025;-75
2021/01/27 00:02:29;;;;;;;13.18;8.80;;;;;;;-2.09;100.00;96112.22;1040519;28;20029;-69
2021/01/27 00:03:00;;;;;;;12.32;8.93;;;;;;;-2.11;100.00;96116.81;1040457;28;20014;-70
2021/01/27 00:03:30;;;;;;;13.38;9.30;;;;;;;-2.10;100.00;96115.81;1040501;28;20619;-70
2021/01/27 00:04:01;;;;;;;9.40;8.30;;;;;;;-2.10;100.00;96108.03;1040328;28;20021;-70
2021/01/27 00:04:31;;;;;;;9.32;6.68;;;;;;;-2.07;100.00;96110.25;1040539;28;20040;-83
2021/01/27 00:05:03;;;;;;;9.23;7.55;;;;;;;-2.10;100.00;96115.81;1036642;28;20037;-72
2021/01/27 00:05:35;;;;;;;9.27;6.68;;;;;;;-2.12;100.00;96110.84;1036664;28;20529;-69
2021/01/27 00:06:06;;;;;;;7.75;6.95;;;;;;;-2.09;100.00;96104.47;1040643;28;20748;-71
2021/01/27 00:06:36;;;;;;;8.27;6.40;;;;;;;-2.05;100.00;96114.25;1041054;28;20279;-73
2021/01/27 00:07:07;;;;;;;10.02;6.38;;;;;;;-2.07;100.00;96107.66;1044917;28;20083;-82
2021/01/27 00:07:37;;;;;;;8.02;6.90;;;;;;;-2.06;100.00;96111.84;1044983;28;20040;-75
2021/01/27 00:08:08;;;;;;;8.05;6.47;;;;;;;-2.04;100.00;96117.66;1045034;28;20462;-71
2021/01/27 00:08:38;;;;;;;8.38;6.65;;;;;;;-2.04;100.00;96115.06;1044922;28;20028;-72
2021/01/27 00:09:09;;;;;;;7.78;6.32;;;;;;;-2.03;100.00;96107.06;1044781;28;20124;-69
2021/01/27 00:09:39;;;;;;;7.32;6.35;;;;;;;-2.00;100.00;96111.09;1044937;28;20083;-75
2021/01/27 00:10:10;;;;;;;9.43;5.65;;;;;;;-2.00;100.00;96114.47;1040370;28;20045;-71
2021/01/27 00:10:41;;;;;;;7.32;6.03;;;;;;;-2.01;100.00;96110.28;1040440;28;20037;-70
2021/01/27 00:11:11;;;;;;;10.20;5.93;;;;;;;-1.99;100.00;96117.88;1040526;28;20673;-69
2021/01/27 00:11:42;;;;;;;8.73;6.25;;;;;;;-1.98;100.00;96114.31;1040587;28;20441;-72
2021/01/27 00:12:12;;;;;;;9.25;5.57;;;;;;;-1.96;100.00;96114.91;1044943;28;20025;-70
2021/01/27 00:12:43;;;;;;;8.07;5.78;;;;;;;-1.94;100.00;96115.53;1040391;28;20028;-74
2021/01/27 00:13:16;;;;;;;6.35;5.15;;;;;;;-1.91;100.00;96115.13;1040423;28;20493;-69
2021/01/27 00:13:46;;;;;;;5.57;4.57;;;;;;;-1.89;100.00;96109.75;1040507;28;20108;-81
2021/01/27 00:14:17;;;;;;;6.90;4.47;;;;;;;-1.85;100.00;96119.53;1040688;28;20625;-75
2021/01/27 00:14:47;;;;;;;6.30;5.00;;;;;;;-1.82;100.00;96116.56;1044833;28;20083;-71
2021/01/27 00:15:20;;;;;;;8.10;5.15;;;;;;;-1.78;100.00;96118.78;1044826;28;20044;-72
2021/01/27 00:15:50;;;;;;;8.25;4.85;;;;;;;-1.74;100.00;96120.00;1044808;28;20033;-74
2021/01/27 00:16:21;;;;;;;7.05;4.20;;;;;;;-1.72;100.00;96115.44;1044783;28;20344;-84
2021/01/27 00:16:51;;;;;;;6.97;4.15;;;;;;;-1.71;100.00;96115.22;1044908;28;20358;-69
2021/01/27 00:17:22;;;;;;;6.22;4.75;;;;;;;-1.69;100.00;96115.81;1045003;28;20017;-74
2021/01/27 00:17:52;;;;;;;6.03;4.35;;;;;;;-1.67;100.00;96120.81;1044833;28;20075;-71
2021/01/27 00:18:23;;;;;;;6.80;4.50;;;;;;;-1.66;100.00;96125.03;1040367;28;20025;-73
2021/01/27 00:18:53;;;;;;;4.95;4.25;;;;;;;-1.65;100.00;96122.22;1040315;28;20025;-81
2021/01/27 00:19:24;;;;;;;7.55;4.95;;;;;;;-1.62;100.00;96119.25;1040392;28;20030;-72
2021/01/27 00:19:54;;;;;;;9.75;4.40;;;;;;;-1.61;100.00;96120.06;1036234;28;20026;-72
2021/01/27 00:20:25;;;;;;;8.88;4.88;;;;;;;-1.61;100.00;96128.63;1040501;28;20041;-77
2021/01/27 00:20:56;;;;;;;6.55;4.47;;;;;;;-1.58;100.00;96129.25;1036314;28;20030;-72
2021/01/27 00:21:26;;;;;;;4.45;4.05;;;;;;;-1.59;100.00;96128.44;1036592;28;20285;-71
2021/01/27 00:21:57;;;;;;;6.43;4.40;;;;;;;-1.61;100.00;96118.25;1040323;28;20108;-78
2021/01/27 00:22:27;;;;;;;6.57;3.97;;;;;;;-1.58;100.00;96121.47;1036535;28;20025;-77
2021/01/27 00:22:58;;;;;;;5.25;4.38;;;;;;;-1.57;100.00;96125.66;1040300;28;20481;-80
2021/01/27 00:23:28;;;;;;;6.70;3.75;;;;;;;-1.57;100.00;96123.84;1036587;28;20490;-74
2021/01/27 00:23:59;;;;;;;9.32;4.03;;;;;;;-1.58;99.54;96122.28;1032454;28;20097;-71
2021/01/27 00:24:29;;;;;;;6.57;3.97;;;;;;;-1.55;99.95;96127.06;1036416;28;20045;-73
2021/01/27 00:25:00;;;;;;;5.63;3.92;;;;;;;-1.56;99.50;96122.09;1036327;28;20021;-79
2021/01/27 00:25:32;;;;;;;4.65;3.47;;;;;;;-1.56;99.21;96122.88;1036536;28;20029;-81
2021/01/27 00:26:03;;;;;;;5.78;3.67;;;;;;;-1.56;99.27;96116.91;1040323;28;20018;-71
2021/01/27 00:26:34;;;;;;;5.13;3.85;;;;;;;-1.56;99.04;96120.28;1040431;28;20295;-73
2021/01/27 00:27:04;;;;;;;4.38;3.78;;;;;;;-1.57;98.50;96116.06;1040724;28;20036;-72
2021/01/27 00:27:35;;;;;;;7.53;3.75;;;;;;;-1.58;98.30;96116.28;1044737;28;20060;-70
2021/01/27 00:28:06;;;;;;;4.55;3.40;;;;;;;-1.57;98.61;96121.25;1044869;28;20031;-77
2021/01/27 00:28:37;;;;;;;6.00;3.45;;;;;;;-1.57;98.80;96112.69;1044755;28;20407;-71
2021/01/27 00:29:07;;;;;;;5.60;3.60;;;;;;;-1.52;98.24;96118.91;1044755;28;20255;-76
2021/01/27 00:29:39;;;;;;;3.97;3.58;;;;;;;-1.52;97.96;96118.09;1040294;28;20018;-79
2021/01/27 00:30:12;;;;;;;6.00;3.65;;;;;;;-1.52;97.98;96113.72;1040203;28;20020;-72
2021/01/27 00:30:42;;;;;;;4.82;3.70;;;;;;;-1.54;98.04;96118.28;1040350;28;20276;-72
2021/01/27 00:31:13;;;;;;;5.43;3.90;;;;;;;-1.53;98.02;96112.09;1036937;28;20267;-69
2021/01/27 00:31:43;;;;;;;6.35;3.40;;;;;;;-1.53;98.12;96111.31;1040533;28;20040;-69
2021/01/27 00:32:14;;;;;;;7.30;4.13;;;;;;;-1.56;98.19;96099.53;1040532;28;20026;-82
2021/01/27 00:32:45;;;;;;;9.23;3.90;;;;;;;-1.52;98.19;96107.72;1040463;28;20060;-69
2021/01/27 00:33:15;;;;;;;4.85;3.83;;;;;;;-1.54;98.22;96107.91;1040443;28;20018;-69
2021/01/27 00:33:46;;;;;;;7.13;4.10;;;;;;;-1.53;98.58;96112.09;1040686;28;20026;-69
2021/01/27 00:34:20;;;;;;;4.50;4.00;;;;;;;-1.56;98.58;96106.53;1040569;28;20017;-73
2021/01/27 00:34:51;;;;;;;5.93;3.58;;;;;;;-1.54;98.66;96107.13;1041123;28;20033;-83
2021/01/27 00:35:25;;;;;;;6.78;3.90;;;;;;;-1.54;98.41;96097.53;1044903;28;20262;-69
2021/01/27 00:35:56;;;;;;;5.28;3.65;;;;;;;-1.58;97.93;96100.72;1044900;28;20420;-69
2021/01/27 00:36:26;;;;;;;4.63;3.63;;;;;;;-1.56;97.67;96101.31;1044752;28;20309;-76
2021/01/27 00:36:56;;;;;;;9.95;3.75;;;;;;;-1.58;97.24;96103.31;1044757;28;20021;-74
2021/01/27 00:37:27;;;;;;;5.60;3.53;;;;;;;-1.58;97.07;96100.72;1040296;28;20029;-80
2021/01/27 00:37:59;;;;;;;6.15;3.33;;;;;;;-1.59;97.36;96107.69;1036269;28;20022;-81
2021/01/27 00:38:29;;;;;;;4.47;3.95;;;;;;;-1.63;97.26;96096.88;1035503;28;20085;-73
2021/01/27 00:38:59;;;;;;;4.85;3.30;;;;;;;-1.60;96.86;96099.09;1036439;28;20257;-69
2021/01/27 00:39:30;;;;;;;5.53;3.65;;;;;;;-1.60;97.22;96101.69;1040704;28;20052;-70
2021/01/27 00:40:01;;;;;;;4.07;3.60;;;;;;;-1.62;97.10;96085.53;1044639;28;20028;-83
2021/01/27 00:40:31;;;;;;;5.35;3.80;;;;;;;-1.58;97.32;96095.53;1044774;28;20021;-74
2021/01/27 00:41:01;;;;;;;6.68;3.67;;;;;;;-1.59;97.17;96099.91;1044747;28;20067;-78
2021/01/27 00:41:32;;;;;;;5.28;3.65;;;;;;;-1.60;97.45;96090.53;1044861;28;20563;-73
2021/01/27 00:42:03;;;;;;;3.90;2.90;;;;;;;-1.62;96.76;96097.72;1044765;28;20020;-73
2021/01/27 00:42:33;;;;;;;4.80;3.13;;;;;;;-1.62;96.84;96093.31;1044812;28;20028;-81
2021/01/27 00:43:04;;;;;;;8.55;3.40;;;;;;;-1.63;97.27;96096.09;1044869;28;20069;-70
2021/01/27 00:43:34;;;;;;;5.43;3.72;;;;;;;-1.62;97.26;96092.53;1044784;28;20028;-73
2021/01/27 00:44:05;;;;;;;6.88;3.92;;;;;;;-1.62;97.05;96097.72;1044634;28;20327;-82
2021/01/27 00:44:35;;;;;;;5.68;3.85;;;;;;;-1.63;97.31;96098.69;1045073;28;20032;-70
2021/01/27 00:45:07;;;;;;;7.10;3.47;;;;;;;-1.60;96.90;96095.72;1040453;28;20025;-69
2021/01/27 00:45:38;;;;;;;5.45;3.30;;;;;;;-1.60;97.61;96096.50;1032256;28;20023;-74
2021/01/27 00:46:09;;;;;;;8.05;4.22;;;;;;;-1.60;97.52;96091.31;1032243;28;20308;-69
2021/01/27 00:46:39;;;;;;;4.38;3.58;;;;;;;-1.61;97.50;96088.91;1032786;28;20053;-82
2021/01/27 00:47:09;;;;;;;6.28;3.95;;;;;;;-1.62;97.65;96092.53;1036793;28;20026;-74
2021/01/27 00:47:40;;;;;;;5.68;3.58;;;;;;;-1.63;98.02;96096.88;1044873;28;20043;-69
2021/01/27 00:48:11;;;;;;;5.35;4.00;;;;;;;-1.63;97.78;96094.28;1044729;28;20107;-82
2021/01/27 00:48:41;;;;;;;6.20;3.53;;;;;;;-1.61;98.03;96094.09;1040373;28;20076;-70
2021/01/27 00:49:12;;;;;;;6.18;3.88;;;;;;;-1.60;97.94;96087.94;1036337;28;20387;-82
2021/01/27 00:49:42;;;;;;;5.20;3.10;;;;;;;-1.60;98.15;96086.13;1036324;28;20099;-72
2021/01/27 00:50:14;;;;;;;6.65;3.75;;;;;;;-1.61;97.92;96083.72;1036584;28;20018;-70
2021/01/27 00:50:45;;;;;;;7.30;3.65;;;;;;;-1.59;97.62;96084.31;1040773;28;20021;-82
2021/01/27 00:51:15;;;;;;;4.47;3.20;;;;;;;-1.63;97.62;96083.91;1044812;28;20305;-70
2021/01/27 00:51:46;;;;;;;7.28;4.00;;;;;;;-1.61;97.66;96087.09;1044739;28;20130;-82
2021/01/27 00:52:16;;;;;;;6.82;3.50;;;;;;;-1.67;97.66;96074.91;1044851;28;20036;-75
2021/01/27 00:52:47;;;;;;;4.68;3.70;;;;;;;-1.61;97.29;96089.72;1044743;28;20029;-74
2021/01/27 00:53:18;;;;;;;5.18;3.38;;;;;;;-1.62;96.96;96084.75;1040149;28;20032;-84
2021/01/27 00:53:48;;;;;;;4.97;3.25;;;;;;;-1.63;96.69;96094.28;1040458;28;20017;-73
2021/01/27 00:54:19;;;;;;;4.88;3.78;;;;;;;-1.63;96.73;96088.31;1040283;28;20022;-76
2021/01/27 00:54:49;;;;;;;4.47;3.67;;;;;;;-1.62;97.25;96087.31;1040597;28;20025;-69
2021/01/27 00:55:22;;;;;;;7.45;3.25;;;;;;;-1.63;97.19;96088.31;1044719;28;20025;-70
2021/01/27 00:55:53;;;;;;;5.53;3.63;;;;;;;-1.63;97.14;96093.50;1040350;28;20030;-83
2021/01/27 00:56:23;;;;;;;4.65;3.55;;;;;;;-1.62;97.28;96088.13;1040337;28;20264;-71
2021/01/27 00:56:54;;;;;;;4.90;3.70;;;;;;;-1.61;96.75;96083.72;1036410;28;20029;-74
2021/01/27 00:57:24;;;;;;;7.03;3.72;;;;;;;-1.61;96.53;96088.91;1036567;28;20030;-71
2021/01/27 00:57:57;;;;;;;5.20;3.40;;;;;;;-1.60;96.78;96090.53;1036330;28;20014;-74
2021/01/27 00:58:27;;;;;;;6.20;3.35;;;;;;;-1.61;96.32;96088.91;1024252;29;20042;-83
2021/01/27 00:58:58;;;;;;;5.95;4.00;;;;;;;-1.64;96.41;96084.13;1024361;28;20267;-70
2021/01/27 00:59:28;;;;;;;5.70;3.17;;;;;;;-1.61;96.24;96094.09;1028673;28;20055;-71
2021/01/27 00:59:58;;;;;;;5.80;3.13;;;;;;;-1.60;95.85;96096.50;1032859;28;20491;-80
2021/01/27 01:00:31;;;;;;;3.63;3.22;;;;;;;-1.59;96.44;96105.09;1045553;28;20021;-70
2021/01/27 01:01:02;;;;;;;6.43;3.60;;;;;;;-1.57;96.22;96089.34;1041015;28;20017;-83
2021/01/27 01:01:32;;;;;;;5.50;3.60;;;;;;;-1.59;96.23;96092.13;1041146;28;20267;-71
2021/01/27 01:02:02;;;;;;;4.43;3.50;;;;;;;-1.60;96.41;96090.53;1041077;28;20493;-73
2021/01/27 01:02:38;;;;;;;5.97;3.28;;;;;;;-1.56;96.66;96090.94;1041391;28;20021;-82
2021/01/27 01:03:09;;;;;;;5.43;3.28;;;;;;;-1.56;96.30;96090.94;1045630;28;20049;-73
2021/01/27 01:03:40;;;;;;;6.05;3.47;;;;;;;-1.56;96.71;96098.72;1041048;28;20260;-84
2021/01/27 01:04:10;;;;;;;6.82;3.63;;;;;;;-1.56;96.68;96096.94;1041041;28;20029;-75
2021/01/27 01:04:41;;;;;;;5.50;3.25;;;;;;;-1.55;96.69;96095.91;1037018;28;20022;-69
2021/01/27 01:05:13;;;;;;;5.85;3.95;;;;;;;-1.56;96.85;96089.16;1037171;28;20025;-82
2021/01/27 01:05:44;;;;;;;7.35;3.67;;;;;;;-1.53;96.52;96091.34;1041261;28;20553;-70
2021/01/27 01:06:14;;;;;;;6.05;3.85;;;;;;;-1.54;96.18;96094.16;1041480;28;20279;-84
2021/01/27 01:06:45;;;;;;;4.43;3.20;;;;;;;-1.55;95.90;96095.91;1045666;28;20025;-76
2021/01/27 01:07:15;;;;;;;5.15;3.28;;;;;;;-1.57;95.91;96092.72;1041175;28;20022;-70
2021/01/27 01:07:47;;;;;;;4.13;3.28;;;;;;;-1.58;95.41;96090.34;1041216;28;20025;-84
2021/01/27 01:08:18;;;;;;;5.28;3.17;;;;;;;-1.57;95.68;96095.31;1037081;28;20061;-70
2021/01/27 01:08:48;;;;;;;6.05;3.58;;;;;;;-1.60;95.07;96096.50;1037367;28;20756;-70
2021/01/27 01:09:19;;;;;;;8.32;3.80;;;;;;;-1.62;94.94;96095.13;1041241;28;20267;-72
2021/01/27 01:09:49;;;;;;;4.47;3.15;;;;;;;-1.63;95.15;96089.09;1041425;28;20021;-70
2021/01/27 01:10:46;;;;;;;6.15;3.58;;;;;;;-1.65;95.01;96090.31;1045658;28;20032;-79
2021/01/27 01:11:16;;;;;;;5.22;3.45;;;;;;;-1.65;95.55;96092.88;1040875;28;20041;-72
2021/01/27 01:11:47;;;;;;;4.13;3.40;;;;;;;-1.66;95.20;96093.91;1045709;28;20311;-72
2021/01/27 01:12:17;;;;;;;4.65;3.30;;;;;;;-1.66;95.40;96092.09;1045611;28;20416;-70
2021/01/27 01:12:48;;;;;;;4.50;3.78;;;;;;;-1.69;95.89;96089.09;1045574;28;20017;-71
2021/01/27 01:13:20;;;;;;;5.28;3.40;;;;;;;-1.68;95.25;96094.09;1045621;28;20017;-75
2021/01/27 01:13:51;;;;;;;5.55;3.22;;;;;;;-1.68;95.39;96098.47;1045462;28;20013;-70
2021/01/27 01:14:21;;;;;;;4.03;3.15;;;;;;;-1.68;94.91;96093.28;1041012;28;20264;-83
2021/01/27 01:14:52;;;;;;;6.35;3.55;;;;;;;-1.68;95.47;96080.31;1041016;28;20022;-70
2021/01/27 01:15:23;;;;;;;3.97;3.08;;;;;;;-1.67;95.59;96089.69;1041198;28;20017;-73
2021/01/27 01:15:54;;;;;;;8.13;3.42;;;;;;;-1.70;95.56;96093.47;1041579;28;20021;-71
2021/01/27 01:16:24;;;;;;;4.68;3.30;;;;;;;-1.68;95.31;96090.69;1041247;28;20260;-70
2021/01/27 01:16:54;;;;;;;4.43;3.13;;;;;;;-1.68;95.70;96085.50;1041150;28;20059;-84
2021/01/27 01:17:25;;;;;;;7.10;3.20;;;;;;;-1.68;95.33;96098.47;1041193;28;20112;-71
2021/01/27 01:17:56;;;;;;;5.72;3.35;;;;;;;-1.71;95.51;96093.66;1041176;28;20021;-71
2021/01/27 01:18:26;;;;;;;5.80;3.63;;;;;;;-1.70;95.73;96085.69;1045476;28;20047;-80
2021/01/27 01:18:57;;;;;;;5.78;3.67;;;;;;;-1.71;95.47;96088.47;1045598;28;20021;-72
2021/01/27 01:19:27;;;;;;;6.60;3.42;;;;;;;-1.71;95.39;96088.47;1045535;28;20040;-82
2021/01/27 01:19:58;;;;;;;5.90;3.72;;;;;;;-1.73;95.29;96088.66;1045488;28;20071;-73
2021/01/27 01:20:28;;;;;;;4.63;3.38;;;;;;;-1.76;95.14;96086.47;1045453;28;20112;-69
2021/01/27 01:20:59;;;;;;;4.97;3.08;;;;;;;-1.74;95.86;96089.69;1045514;28;20020;-80
2021/01/27 01:21:29;;;;;;;5.55;4.07;;;;;;;-1.77;95.29;96069.28;1045510;28;20033;-74
2021/01/27 01:21:59;;;;;;;4.72;3.45;;;;;;;-1.73;94.81;96080.09;1045534;28;20021;-70
2021/01/27 01:22:30;;;;;;;4.40;3.20;;;;;;;-1.74;94.83;96081.09;1041115;28;20064;-69
2021/01/27 01:23:00;;;;;;;4.65;3.53;;;;;;;-1.75;94.63;96079.47;1041073;28;20018;-70
2021/01/27 01:23:31;;;;;;;4.63;3.50;;;;;;;-1.75;95.16;96079.47;1041087;28;20157;-83
2021/01/27 01:24:02;;;;;;;4.78;3.47;;;;;;;-1.76;95.07;96076.09;1041153;28;20111;-69
2021/01/27 01:24:32;;;;;;;5.57;3.28;;;;;;;-1.78;95.02;96077.25;1045520;28;20063;-68
2021/01/27 01:25:03;;;;;;;4.75;3.10;;;;;;;-1.80;94.63;96077.47;1045523;28;20491;-80
2021/01/27 01:25:34;;;;;;;7.13;3.28;;;;;;;-1.83;94.30;96073.47;1045650;28;20021;-70
2021/01/27 01:26:04;;;;;;;4.28;3.33;;;;;;;-1.85;94.00;96067.66;1045428;28;20476;-74
2021/01/27 01:26:35;;;;;;;3.35;2.80;;;;;;;-1.86;93.86;96070.47;1045777;28;20243;-72
2021/01/27 01:27:05;;;;;;;4.47;3.08;;;;;;;-1.88;94.27;96073.25;1045389;28;20009;-76
2021/01/27 01:27:36;;;;;;;4.35;3.30;;;;;;;-1.90;94.04;96069.22;1045502;28;20100;-84
2021/01/27 01:28:07;;;;;;;5.13;3.05;;;;;;;-1.91;94.09;96068.44;1040808;28;20021;-70
2021/01/27 01:28:37;;;;;;;6.72;3.38;;;;;;;-1.95;94.20;96075.00;1041166;28;20025;-84
2021/01/27 01:29:08;;;;;;;5.22;3.10;;;;;;;-1.99;93.93;96076.38;1040939;28;20378;-76
2021/01/27 01:29:38;;;;;;;8.02;3.60;;;;;;;-1.99;94.47;96076.38;1037139;28;20010;-75
2021/01/27 01:30:19;;;;;;;3.90;3.05;;;;;;;-2.08;94.14;96057.59;1040915;28;20099;-79
2021/01/27 01:30:50;;;;;;;8.35;2.85;;;;;;;-1.99;94.33;96073.78;1036932;28;20026;-72
2021/01/27 01:31:20;;;;;;;4.72;2.83;;;;;;;-2.03;94.39;96077.75;1038402;28;20260;-84
2021/01/27 01:31:51;;;;;;;4.25;3.35;;;;;;;-2.03;93.88;96072.56;1041094;28;20021;-69
2021/01/27 01:32:21;;;;;;;4.18;3.13;;;;;;;-2.05;94.19;96080.53;1042136;28;20017;-70
2021/01/27 01:32:53;;;;;;;4.35;3.35;;;;;;;-2.06;94.17;96083.31;1045543;28;20028;-84
2021/01/27 01:33:28;;;;;;;4.03;3.20;;;;;;;-2.08;94.58;96075.75;1045389;28;20088;-71
2021/01/27 01:33:58;;;;;;;5.10;3.28;;;;;;;-2.13;94.02;96077.31;1045483;28;20260;-82
2021/01/27 01:34:29;;;;;;;6.55;3.47;;;;;;;-2.10;93.78;96080.31;1045312;28;20255;-78
2021/01/27 01:35:00;;;;;;;8.38;3.13;;;;;;;-2.07;93.61;96081.72;1045461;28;20023;-76
2021/01/27 01:35:30;;;;;;;3.72;3.03;;;;;;;-2.08;93.76;96078.34;1040821;28;20024;-82
2021/01/27 01:36:01;;;;;;;6.00;3.20;;;;;;;-2.06;94.36;96075.53;1041145;28;20135;-76
2021/01/27 01:36:31;;;;;;;4.75;3.50;;;;;;;-2.07;94.13;96076.53;1040940;28;20394;-83
2021/01/27 01:37:02;;;;;;;5.05;3.40;;;;;;;-2.07;94.45;96082.53;1041060;28;20021;-73
2021/01/27 01:37:32;;;;;;;3.90;3.17;;;;;;;-2.06;94.43;96075.53;1040905;28;20013;-70
2021/01/27 01:38:03;;;;;;;6.78;3.25;;;;;;;-2.07;94.45;96074.75;1041006;28;20021;-84
2021/01/27 01:38:33;;;;;;;4.53;3.42;;;;;;;-2.10;94.69;96062.19;1041027;28;20017;-73
2021/01/27 01:39:04;;;;;;;7.53;3.55;;;;;;;-2.04;94.19;96074.38;1041253;28;20033;-71
2021/01/27 01:39:34;;;;;;;4.78;3.00;;;;;;;-2.02;93.60;96072.38;1045322;28;20021;-78
2021/01/27 01:40:06;;;;;;;7.53;3.60;;;;;;;-2.09;93.77;96058.56;1045279;28;20029;-72
2021/01/27 01:40:43;;;;;;;5.63;3.10;;;;;;;-2.05;94.54;96080.53;1045348;28;20025;-85
2021/01/27 01:41:14;;;;;;;5.68;3.70;;;;;;;-2.03;94.62;96075.16;1045311;28;20366;-73
2021/01/27 01:41:44;;;;;;;6.22;3.58;;;;;;;-2.02;94.04;96076.78;1045253;28;20268;-83
2021/01/27 01:42:17;;;;;;;3.83;3.28;;;;;;;-2.00;93.25;96072.19;1045478;28;20021;-71
2021/01/27 01:43:08;;;;;;;4.75;3.00;;;;;;;-2.01;93.07;96075.78;1045444;28;20021;-71
2021/01/27 01:43:39;;;;;;;6.03;3.28;;;;;;;-2.00;93.51;96077.38;1041065;28;20276;-75
2021/01/27 01:44:10;;;;;;;5.18;3.50;;;;;;;-2.01;93.42;96083.56;1036957;28;20787;-70
2021/01/27 01:44:40;;;;;;;4.93;3.17;;;;;;;-2.03;93.35;96077.75;1037050;28;20263;-84
2021/01/27 01:45:23;;;;;;;5.43;3.97;;;;;;;-2.05;93.34;96077.16;1038735;28;20570;-72
2021/01/27 01:46:00;;;;;;;6.22;3.50;;;;;;;-2.07;93.87;96079.94;1038749;28;20065;-86
2021/01/27 01:46:31;;;;;;;5.78;3.20;;;;;;;-2.09;93.42;96075.94;1036958;28;20359;-69
2021/01/27 01:47:01;;;;;;;4.30;3.22;;;;;;;-2.08;93.96;96080.94;1037026;28;20268;-82
2021/01/27 01:47:32;;;;;;;6.40;3.60;;;;;;;-2.08;93.63;96077.53;1033815;28;20105;-71
2021/01/27 01:48:29;;;;;;;5.35;3.72;;;;;;;-2.08;94.07;96080.13;1036991;28;20025;-78
2021/01/27 01:49:07;;;;;;;4.25;3.05;;;;;;;-2.09;93.06;96068.16;1041085;28;20021;-74
2021/01/27 01:49:37;;;;;;;4.05;3.13;;;;;;;-2.09;93.10;96070.75;1040996;28;20267;-81
2021/01/27 01:50:08;;;;;;;6.82;3.25;;;;;;;-2.07;93.07;96069.56;1041097;28;20268;-79
2021/01/27 01:50:39;;;;;;;4.32;3.03;;;;;;;-2.09;93.22;96075.94;1040901;28;20108;-74
2021/01/27 01:51:20;;;;;;;7.10;2.95;;;;;;;-2.08;92.89;96074.94;1040960;28;20028;-85
2021/01/27 01:51:57;;;;;;;4.97;3.28;;;;;;;-2.09;93.05;96071.53;1036976;28;20541;-71
2021/01/27 01:52:27;;;;;;;7.47;3.70;;;;;;;-2.10;93.43;96066.53;1036848;28;20264;-86
2021/01/27 01:52:58;;;;;;;5.53;3.17;;;;;;;-2.18;93.29;96056.31;1032836;28;20637;-75
2021/01/27 01:53:28;;;;;;;5.47;3.20;;;;;;;-2.11;92.83;96068.34;1033975;28;20064;-71
2021/01/27 01:54:08;;;;;;;4.32;3.67;;;;;;;-2.11;93.66;96065.75;1032921;28;20022;-81
2021/01/27 01:54:43;;;;;;;5.03;3.50;;;;;;;-2.12;92.85;96060.75;1034098;28;20049;-72
2021/01/27 01:55:15;;;;;;;4.85;3.08;;;;;;;-2.17;93.03;96060.53;1036942;28;20034;-84
2021/01/27 01:55:46;;;;;;;3.88;3.47;;;;;;;-2.17;93.27;96061.34;1030915;28;20304;-77
2021/01/27 01:56:19;;;;;;;5.97;3.75;;;;;;;-2.16;92.70;96059.53;1024617;29;20644;-85
2021/01/27 01:56:52;;;;;;;3.58;2.90;;;;;;;-2.18;93.01;96057.16;1025484;28;20270;-75
2021/01/27 01:57:25;;;;;;;6.45;3.00;;;;;;;-2.16;93.09;96055.16;1025736;28;20274;-76
2021/01/27 01:57:55;;;;;;;4.18;3.38;;;;;;;-2.16;92.93;96062.13;1022850;28;20278;-85
2021/01/27 01:58:26;;;;;;;3.90;3.50;;;;;;;-2.16;93.11;96056.94;1025390;28;20299;-79
2021/01/27 01:58:59;;;;;;;5.60;2.97;;;;;;;-2.18;93.19;96056.31;1028806;28;20023;-85
2021/01/27 01:59:31;;;;;;;3.45;3.15;;;;;;;-2.23;93.60;96060.28;1025820;28;20033;-70
2021/01/27 02:00:11;;;;;;;3.13;2.83;;;;;;;-2.20;93.20;96054.75;1025437;28;20274;-77
2021/01/27 02:00:41;;;;;;;7.70;3.65;;;;;;;-2.27;93.08;96048.72;1026846;28;20298;-79
2021/01/27 02:01:12;;;;;;;5.43;3.45;;;;;;;-2.32;93.42;96047.69;1026424;28;20102;-78
2021/01/27 02:01:43;;;;;;;5.22;3.97;;;;;;;-2.32;93.30;96051.09;1027281;28;20031;-83
2021/01/27 02:02:13;;;;;;;4.82;3.13;;;;;;;-2.28;92.87;96047.13;1028834;28;20050;-73
2021/01/27 02:02:44;;;;;;;5.07;3.53;;;;;;;-2.32;93.44;96045.09;1028856;28;20265;-75
2021/01/27 02:03:14;;;;;;;6.22;3.17;;;;;;;-2.33;93.47;96043.50;1024882;28;20023;-81
2021/01/27 02:03:44;;;;;;;7.38;3.78;;;;;;;-2.34;93.06;96047.06;1024800;28;20015;-75
2021/01/27 02:04:15;;;;;;;4.30;3.10;;;;;;;-2.36;93.29;96046.47;1028772;28;20026;-82
2021/01/27 02:04:53;;;;;;;4.88;3.25;;;;;;;-2.40;93.35;96044.25;1029058;28;20055;-70
2021/01/27 02:05:24;;;;;;;8.73;3.95;;;;;;;-2.41;92.99;96041.84;1029585;28;20046;-72
2021/01/27 02:05:56;;;;;;;5.05;3.13;;;;;;;-2.44;93.06;96037.88;1032819;28;20606;-82
2021/01/27 02:06:26;;;;;;;4.13;3.20;;;;;;;-2.42;93.03;96045.41;1034203;28;20650;-80
2021/01/27 02:06:57;;;;;;;4.45;3.15;;;;;;;-2.41;92.83;96039.25;1038103;28;20253;-80
2021/01/27 02:07:27;;;;;;;4.22;3.05;;;;;;;-2.43;92.83;96036.84;1041113;28;20037;-76
2021/01/27 02:07:58;;;;;;;4.80;3.20;;;;;;;-2.43;93.34;96043.84;1036765;28;20010;-79
2021/01/27 02:08:29;;;;;;;5.82;3.13;;;;;;;-2.47;93.29;96042.63;1032799;28;20074;-83
2021/01/27 02:08:59;;;;;;;3.72;2.83;;;;;;;-2.50;93.58;96038.59;1032912;28;20019;-70
2021/01/27 02:09:30;;;;;;;4.22;3.25;;;;;;;-2.51;93.32;96037.00;1033141;28;20042;-78
2021/01/27 02:10:00;;;;;;;5.82;3.30;;;;;;;-2.50;93.89;96035.22;1036845;28;20089;-70
2021/01/27 02:10:31;;;;;;;4.68;3.15;;;;;;;-2.56;93.46;96038.56;1036685;28;20037;-71
2021/01/27 02:11:01;;;;;;;6.53;3.88;;;;;;;-2.56;93.66;96041.16;1040972;28;20059;-84
2021/01/27 02:11:53;;;;;;;6.45;3.05;;;;;;;-2.58;93.71;96045.72;1045242;28;20027;-77
2021/01/27 02:12:51;;;;;;;9.80;3.88;;;;;;;-2.61;94.50;96033.97;1040903;28;20381;-84
2021/01/27 02:13:59;;;;;;;3.80;3.10;;;;;;;-2.60;93.91;96041.56;1040992;28;20244;-83
2021/01/27 02:14:44;;;;;;;5.90;3.10;;;;;;;-2.67;93.88;96042.50;1045316;28;20254;-73
2021/01/27 02:15:23;;;;;;;6.13;3.38;;;;;;;-2.68;93.94;96030.50;1040925;28;20260;-77
2021/01/27 02:16:18;;;;;;;4.40;3.30;;;;;;;-2.72;94.81;96037.06;1036866;28;20257;-75
2021/01/27 02:16:59;;;;;;;3.90;2.92;;;;;;;-2.76;94.24;96041.81;1037186;28;20272;-78
2021/01/27 02:17:53;;;;;;;4.80;2.70;;;;;;;-2.80;94.44;96038.78;1037574;28;20245;-83
2021/01/27 02:18:49;;;;;;;5.25;3.08;;;;;;;-2.85;94.27;96037.78;1036790;28;20261;-83
2021/01/27 02:19:35;;;;;;;4.05;2.75;;;;;;;-2.81;94.82;96037.19;1040445;28;20635;-73
2021/01/27 02:20:24;;;;;;;5.55;3.13;;;;;;;-2.79;94.58;96039.63;1036786;28;20265;-85
2021/01/27 02:21:03;;;;;;;4.65;3.03;;;;;;;-2.83;94.63;96038.38;1037101;28;20293;-81
2021/01/27 02:22:09;;;;;;;8.15;4.03;;;;;;;-2.78;94.44;96030.84;1036640;28;20044;-79
2021/01/27 02:22:55;;;;;;;6.38;3.17;;;;;;;-2.71;94.42;96034.28;1036914;28;20478;-84
2021/01/27 02:23:50;;;;;;;5.65;2.90;;;;;;;-2.67;93.75;96032.91;1035643;28;20257;-85
2021/01/27 02:24:41;;;;;;;4.55;3.33;;;;;;;-2.69;93.56;96040.09;1035963;28;20253;-83
2021/01/27 02:25:39;;;;;;;9.93;3.28;;;;;;;-2.69;94.34;96039.28;1038779;28;20245;-84
2021/01/27 02:26:43;;;;;;;4.68;3.15;;;;;;;-2.69;93.75;96036.69;1035048;28;20734;-81
2021/01/27 02:27:23;;;;;;;4.82;3.03;;;;;;;-2.70;94.15;96043.66;1036906;28;20259;-79
2021/01/27 02:27:54;;;;;;;;;;;;;;;-2.68;94.36;96040.88;1037948;28;20260;-85
2021/01/27 02:28:54;;;;;;;3.95;2.97;;;;;;;-2.67;94.61;96039.91;1036294;28;19977;-72
2021/01/27 02:29:54;;;;;;;5.38;2.88;;;;;;;-2.71;94.38;96042.06;1032830;28;20018;-79
2021/01/27 02:30:24;;;;;;;7.47;3.53;;;;;;;-2.68;94.21;96051.22;1036477;28;20030;-84
2021/01/27 02:31:15;;;;;;;7.30;3.40;;;;;;;-2.72;94.00;96047.41;1038996;28;20610;-83
2021/01/27 02:31:51;;;;;;;5.63;3.38;;;;;;;-2.75;94.44;96040.03;1032676;28;20452;-77
2021/01/27 02:32:49;;;;;;;5.60;3.13;;;;;;;-2.73;94.04;96045.84;1036139;28;20288;-76
2021/01/27 02:33:48;;;;;;;5.68;3.10;;;;;;;-2.71;94.02;96047.25;1037754;28;20264;-82
2021/01/27 02:34:47;;;;;;;5.32;3.00;;;;;;;-2.65;94.18;96035.31;1045234;28;20298;-79
2021/01/27 02:35:51;;;;;;;3.92;2.85;;;;;;;-2.61;94.22;96031.38;1045276;28;20147;-74
2021/01/27 02:36:32;;;;;;;7.18;3.35;;;;;;;-2.60;93.35;96036.38;1040771;28;20633;-80
2021/01/27 02:37:04;;;;;;;5.82;2.88;;;;;;;-2.61;93.37;96032.16;1036745;28;20272;-80
2021/01/27 02:37:36;;;;;;;4.95;3.30;;;;;;;-2.60;94.05;96036.38;1028584;28;20258;-83